aviador You're here:

RODN Decoded Metar

KADENA in JAPAN
Report Time2017-06-27 04:56:00
UTC Time2017-06-27 05:15:58
Flight Rules vfr VFR
Wind210° at 12 kt
W.Decomp.*RWY 23: 11.5 kt HW 3.3 kt LCW
W.Rank210° ranks 9
Current wind is above 210° avg. (11.1)
Visibility9999 m
Phenomena:N/A
Clouds:N/A
Expected CloudBase > 2,400 ft AGL from Temp-Dew spread
CeilingNone
Temp31°C (ISA +16)
Dew Point25°C (70% RH)
Heat Index37.6°C
QNH1010 hPa
Density Alt2,526 ft
Elevation148 ft
Report Wrong Elevation
Raw Report
RODN 270456Z 21012KT 10SM CLR 31/25 A2983 RMK AO2A SLP106
T03120251 $=

Extra information for RODN:More info

Metar Taf Metar & Taf Last 4 Metars F.Rules Stats Wind Profile Meteogram Temp Stats Airport Information Weather charts Add Link Nearby VenuesMetar ALERT Operation Metar Decoded Social comments